Elwha — WY3960 — position and weather

sailwx.info

Track history (hours):
 
Tides and Currents Weather Stations Pressure Air Temp Water Temp Dewpoint Dewpoint Depression Visibility Wind Speed Wind Dir Waves Ship Positions

Elwha

Owner: WASHINGTON, STATE OF; Dept. of Transportation, OLYMPIA, WA. More information available from US FCC via Universal Licensing System and Coast Guard Vessel Documentation Center.

Last reported at 2017-Dec-16 12:30 UTC. Time now 2017-Dec-16 12:51 UTC.
Position N 48°30' W 122°41'.

Length 116 m; draft 5.7 m.

Type: Passenger vessel. MMSI: 366773060.

Date/timePositionNaut miles runAvg speedWind from/ knotsBaromVisibWave heightAir tempDewpointWater temp
2017-Dec-16 12:30N 48°30' W 122°41'0 0.0
2017-Dec-16 12:00N 48°30' W 122°41'0 0.0
2017-Dec-16 11:29N 48°30' W 122°41'0 0.0
2017-Dec-16 10:01N 48°30' W 122°41'0 0.0
2017-Dec-16 09:58N 48°30' W 122°41'0 0.0
2017-Dec-16 09:23N 48°30' W 122°41'0 0.0
2017-Dec-16 08:59N 48°30' W 122°41'0 0.1
2017-Dec-16 08:30N 48°30' W 122°41'0 0.1
2017-Dec-16 08:00N 48°30' W 122°41'0 0.0
2017-Dec-16 07:07N 48°30' W 122°41'0 0.1
2017-Dec-16 06:59N 48°30' W 122°41'612.2
2017-Dec-16 06:30N 48°32' W 122°49'612.9
2017-Dec-16 06:00N 48°36' W 122°57'3 7.0
2017-Dec-16 05:31N 48°34' W 122°52'714.8
2017-Dec-16 05:00N 48°31' W 122°42'0 0.8
2017-Dec-16 04:30N 48°31' W 122°42'815.8
2017-Dec-16 04:00N 48°35' W 122°53'2 4.8
2017-Dec-16 03:30N 48°36' W 122°56'4 8.8
2017-Dec-16 03:01N 48°33' W 122°51'714.4
2017-Dec-16 02:30N 48°31' W 122°41'1 1.4
2017-Dec-16 02:01N 48°31' W 122°41'815.2
2017-Dec-16 01:30N 48°34' W 122°51'4 8.0
2017-Dec-16 01:00N 48°36' W 122°57'1 1.8
2017-Dec-16 00:30N 48°35' W 122°56'612.2
2017-Dec-16 00:01N 48°32' W 122°48'510.0
2017-Dec-15 23:30N 48°30' W 122°41'0 0.1
2017-Dec-15 23:00N 48°31' W 122°41'713.6
2017-Dec-15 22:30N 48°33' W 122°50'612.5
2017-Dec-15 22:00N 48°33' W 122°60'1 1.6
2017-Dec-15 21:30N 48°32' W 123°01'611.0
2017-Dec-15 21:01N 48°37' W 123°05'815.9
2017-Dec-15 20:31N 48°38' W 123°17'5 9.2
2017-Dec-15 20:00N 48°39' W 123°24'0 0.0
2017-Dec-15 19:31N 48°39' W 123°24'3 5.6
2017-Dec-15 19:00N 48°39' W 123°20'816.5
2017-Dec-15 18:30N 48°38' W 123°07'714.0
2017-Dec-15 18:00N 48°32' W 123°01'1 1.4
2017-Dec-15 17:30N 48°33' W 122°60'612.9
2017-Dec-15 17:00N 48°33' W 122°50'712.8
2017-Dec-15 16:30N 48°30' W 122°41'2 3.3
2017-Dec-15 16:01N 48°31' W 122°43'714.7
2017-Dec-15 15:30N 48°34' W 122°53'2 4.2
2017-Dec-15 15:00N 48°35' W 122°56'1 1.8
2017-Dec-15 14:30N 48°36' W 122°57'5 9.9
2017-Dec-15 14:00N 48°33' W 122°50'714.0
2017-Dec-15 13:30N 48°30' W 122°41'0 0.1
2017-Dec-15 12:59N 48°30' W 122°41'0 0.1
2017-Dec-15 12:30N 48°30' W 122°41'0 0.1
2017-Dec-15 11:57N 48°30' W 122°41'0 0.0
2017-Dec-15 11:30N 48°30' W 122°41'0 0.0
2017-Dec-15 11:00N 48°30' W 122°41'0 0.0
2017-Dec-15 10:31N 48°30' W 122°41'0 0.0
2017-Dec-15 09:56N 48°30' W 122°41'0 0.0
2017-Dec-15 09:29N 48°30' W 122°41'0 0.1
2017-Dec-15 09:00N 48°30' W 122°41'0 0.1
2017-Dec-15 08:29N 48°30' W 122°41'0 0.0
2017-Dec-15 07:59N 48°30' W 122°41'0 0.0
2017-Dec-15 07:26N 48°30' W 122°41'0 0.0
2017-Dec-15 07:00N 48°30' W 122°41'0 0.0
2017-Dec-15 06:30N 48°30' W 122°41'0 0.0
2017-Dec-15 06:00N 48°30' W 122°41'0 0.0
2017-Dec-15 05:30N 48°30' W 122°41'0 0.0
2017-Dec-15 05:00N 48°30' W 122°41'1 2.9
2017-Dec-15 04:30N 48°32' W 122°42'815.6
2017-Dec-15 04:00N 48°35' W 122°53'9 6.1
2017-Dec-15 02:30N 48°30' W 122°41'12 7.9
2017-Dec-15 01:00N 48°36' W 122°57'1 1.8
2017-Dec-15 00:30N 48°35' W 122°56'8 1.4
2017-Dec-14 18:30N 48°38' W 123°08'714.1
2017-Dec-14 18:01N 48°32' W 123°01'1 1.6
2017-Dec-14 17:31N 48°33' W 122°60'612.7
2017-Dec-14 17:01N 48°33' W 122°50'713.1
2017-Dec-14 16:30N 48°30' W 122°41'2 3.6
2017-Dec-14 16:00N 48°31' W 122°43'9 9.3
2017-Dec-14 15:00N 48°35' W 122°56'1 1.8
2017-Dec-14 14:30N 48°36' W 122°57'5 9.9
2017-Dec-14 14:01N 48°33' W 122°50'714.0
2017-Dec-14 13:30N 48°30' W 122°41'0 0.1
2017-Dec-14 13:00N 48°30' W 122°41'0 0.0
2017-Dec-14 12:30N 48°30' W 122°41'0 0.0
2017-Dec-14 12:00N 48°30' W 122°41'0 0.0
2017-Dec-14 11:30N 48°30' W 122°41'0 0.0
2017-Dec-14 11:00N 48°30' W 122°41'0 0.0
2017-Dec-14 10:30N 48°30' W 122°41'0 0.0
2017-Dec-14 10:00N 48°30' W 122°41'0 0.0
2017-Dec-14 09:30N 48°30' W 122°41'0 0.0
2017-Dec-14 09:00N 48°30' W 122°41'0 0.0
2017-Dec-14 08:30N 48°30' W 122°41'0 0.0
2017-Dec-14 08:00N 48°30' W 122°41'0 0.0
2017-Dec-14 07:30N 48°30' W 122°41'0 0.0
2017-Dec-14 07:00N 48°30' W 122°41'0 0.0
2017-Dec-14 06:30N 48°30' W 122°41'0 0.0
2017-Dec-14 06:00N 48°30' W 122°41'0 0.0
2017-Dec-14 05:30N 48°30' W 122°41'0 0.0
2017-Dec-14 05:00N 48°30' W 122°41'1 2.6
2017-Dec-14 04:30N 48°31' W 122°42'815.8
2017-Dec-14 04:00N 48°35' W 122°53'3 5.4
2017-Dec-14 03:31N 48°36' W 122°57'4 8.8
2017-Dec-14 03:00N 48°33' W 122°51'714.8
2017-Dec-14 02:30N 48°31' W 122°41'1 1.3
2017-Dec-14 02:01N 48°31' W 122°41'714.9
2017-Dec-14 01:30N 48°34' W 122°51'4 8.1
2017-Dec-14 01:00N 48°36' W 122°57'1 1.8
2017-Dec-14 00:30N 48°35' W 122°56'612.9
2017-Dec-14 00:01N 48°32' W 122°48'5 9.5
2017-Dec-13 23:30N 48°30' W 122°41'0 0.1
2017-Dec-13 23:00N 48°30' W 122°41'714.0
2017-Dec-13 22:31N 48°33' W 122°50'612.7
2017-Dec-13 22:01N 48°33' W 122°60'1 1.5
2017-Dec-13 21:30N 48°32' W 123°01'510.5
2017-Dec-13 21:01N 48°37' W 123°05'815.4
2017-Dec-13 20:30N 48°39' W 123°16'510.3
2017-Dec-13 20:00N 48°39' W 123°24'0 0.1
2017-Dec-13 19:30N 48°39' W 123°24'4 7.3
2017-Dec-13 19:00N 48°39' W 123°18'815.1
2017-Dec-13 18:31N 48°38' W 123°07'713.6
2017-Dec-13 18:00N 48°32' W 123°01'1 1.1
2017-Dec-13 17:31N 48°33' W 123°00'713.7
2017-Dec-13 17:00N 48°33' W 122°50'713.3
2017-Dec-13 16:30N 48°30' W 122°41'2 4.1
2017-Dec-13 16:00N 48°31' W 122°43'713.7
2017-Dec-13 15:30N 48°34' W 122°53'2 4.2
2017-Dec-13 15:00N 48°35' W 122°56'1 1.8
2017-Dec-13 14:30N 48°36' W 122°57'510.2
2017-Dec-13 14:00N 48°33' W 122°50'713.8
2017-Dec-13 13:30N 48°30' W 122°41'0 0.1
2017-Dec-13 13:00N 48°30' W 122°41'0 0.0
2017-Dec-13 12:30N 48°30' W 122°41'0 0.0
2017-Dec-13 12:00N 48°30' W 122°41'0 0.0
2017-Dec-13 11:31N 48°30' W 122°41'0 0.0
2017-Dec-13 10:59N 48°30' W 122°41'0 0.0
2017-Dec-13 10:30N 48°30' W 122°41'0 0.0
2017-Dec-13 10:00N 48°30' W 122°41'0 0.0
2017-Dec-13 09:31N 48°30' W 122°41'0 0.1
2017-Dec-13 08:59N 48°30' W 122°41'0 0.1
2017-Dec-13 08:31N 48°30' W 122°41'0 0.0
2017-Dec-13 08:01N 48°30' W 122°41'0 0.0
2017-Dec-13 07:30N 48°30' W 122°41'0 0.0
2017-Dec-13 06:59N 48°30' W 122°41'611.8
2017-Dec-13 06:31N 48°32' W 122°49'713.0
2017-Dec-13 06:00N 48°36' W 122°57'3 6.7
2017-Dec-13 05:30N 48°34' W 122°52'815.3
2017-Dec-13 05:00N 48°31' W 122°42'1 1.4
2017-Dec-13 04:31N 48°32' W 122°42'815.7
2017-Dec-13 04:01N 48°35' W 122°53'2 4.5
2017-Dec-13 03:30N 48°36' W 122°56'5 9.2
2017-Dec-13 03:00N 48°33' W 122°51'714.0
2017-Dec-13 02:30N 48°30' W 122°41'1 1.1
2017-Dec-13 02:00N 48°31' W 122°40'815.5
2017-Dec-13 01:30N 48°34' W 122°51'4 8.0
2017-Dec-13 01:00N 48°36' W 122°57'1 1.8
2017-Dec-13 00:30N 48°35' W 122°56'612.6
2017-Dec-13 00:00N 48°32' W 122°48'5 9.8
2017-Dec-12 23:30N 48°30' W 122°41'0 0.0
2017-Dec-12 23:00N 48°30' W 122°41'713.2
2017-Dec-12 22:31N 48°32' W 122°50'612.5
2017-Dec-12 22:00N 48°33' W 122°59'1 2.0
2017-Dec-12 21:30N 48°32' W 123°01'510.4
2017-Dec-12 21:00N 48°37' W 123°05'816.1
2017-Dec-12 20:30N 48°38' W 123°17'5 9.4
2017-Dec-12 20:00N 48°39' W 123°24'0 0.0
2017-Dec-12 19:30N 48°39' W 123°24'3 5.8
2017-Dec-12 19:00N 48°39' W 123°20'816.0
2017-Dec-12 18:31N 48°38' W 123°08'714.2
2017-Dec-12 18:01N 48°32' W 123°01'1 1.5
2017-Dec-12 17:31N 48°33' W 122°60'612.9
2017-Dec-12 17:00N 48°32' W 122°50'612.8
2017-Dec-12 16:30N 48°30' W 122°41'2 4.3
2017-Dec-12 16:00N 48°31' W 122°43'713.8
2017-Dec-12 15:30N 48°34' W 122°53'2 4.1
2017-Dec-12 15:00N 48°35' W 122°56'1 1.8
2017-Dec-12 14:30N 48°36' W 122°57'5 9.3
2017-Dec-12 14:01N 48°33' W 122°51'714.6
2017-Dec-12 13:30N 48°30' W 122°41'0 0.1
2017-Dec-12 13:00N 48°30' W 122°41'0 0.1
2017-Dec-12 12:30N 48°30' W 122°41'0 0.0
2017-Dec-12 07:13N 48°30' W 122°41'0 0.0
2017-Dec-12 07:00N 48°30' W 122°41'611.1
2017-Dec-12 06:31N 48°32' W 122°49'713.1
2017-Dec-12 06:00N 48°36' W 122°57'4 7.3
2017-Dec-12 05:30N 48°34' W 122°52'815.6
2017-Dec-12 05:00N 48°31' W 122°41'1 2.1
2017-Dec-12 04:30N 48°31' W 122°42'815.3
2017-Dec-12 04:00N 48°35' W 122°53'3 5.2
2017-Dec-12 03:30N 48°36' W 122°57'4 8.7
2017-Dec-12 03:00N 48°33' W 122°51'714.9
2017-Dec-12 02:30N 48°31' W 122°41'1 1.5
2017-Dec-12 02:00N 48°31' W 122°41'715.1
2017-Dec-12 01:30N 48°34' W 122°51'4 7.8
2017-Dec-12 01:00N 48°36' W 122°57'1 1.8
2017-Dec-12 00:30N 48°35' W 122°56'612.7
2017-Dec-12 00:00N 48°32' W 122°48'5 9.8
2017-Dec-11 23:30N 48°30' W 122°41'0 0.0
2017-Dec-11 23:00N 48°30' W 122°41'613.0
2017-Dec-11 22:30N 48°32' W 122°50'612.6
2017-Dec-11 22:00N 48°33' W 122°59'1 2.0
2017-Dec-11 21:30N 48°32' W 123°01'510.5
2017-Dec-11 21:00N 48°37' W 123°05'815.5
2017-Dec-11 20:30N 48°38' W 123°16'5 9.0
2017-Dec-11 19:57N 48°39' W 123°24'0 0.0
2017-Dec-11 19:30N 48°39' W 123°24'3 5.0
2017-Dec-11 19:00N 48°39' W 123°20'816.2
2017-Dec-11 18:30N 48°38' W 123°08'815.0
2017-Dec-11 18:00N 48°33' W 123°00'1 3.0
2017-Dec-11 17:31N 48°32' W 122°58'612.6
2017-Dec-11 17:01N 48°32' W 122°48'510.5
2017-Dec-11 16:30N 48°30' W 122°41'2 4.6
2017-Dec-11 16:01N 48°31' W 122°44'713.4
2017-Dec-11 15:30N 48°34' W 122°53'2 4.1
2017-Dec-11 15:00N 48°35' W 122°56'1 1.8
2017-Dec-11 14:30N 48°36' W 122°57'510.0
2017-Dec-11 14:00N 48°33' W 122°50'713.9
2017-Dec-11 13:30N 48°30' W 122°41'0 0.1
2017-Dec-11 13:00N 48°30' W 122°41'0 0.0
2017-Dec-11 12:30N 48°30' W 122°41'0 0.0
2017-Dec-11 12:00N 48°30' W 122°41'0 0.0
2017-Dec-11 11:30N 48°30' W 122°41'0 0.0
2017-Dec-11 11:00N 48°30' W 122°41'0 0.0
2017-Dec-11 10:30N 48°30' W 122°41'0 0.0
2017-Dec-11 10:00N 48°30' W 122°41'0 0.0
2017-Dec-11 09:30N 48°30' W 122°41'0 0.0
2017-Dec-11 09:00N 48°30' W 122°41'0 0.0
2017-Dec-11 08:30N 48°30' W 122°41'0 0.0
2017-Dec-11 08:00N 48°30' W 122°41'0 0.0
2017-Dec-11 07:30N 48°30' W 122°41'0 0.0
2017-Dec-11 07:00N 48°30' W 122°41'611.0
2017-Dec-11 06:30N 48°32' W 122°49'713.3
2017-Dec-11 06:01N 48°36' W 122°57'3 6.3
2017-Dec-11 05:30N 48°35' W 122°52'815.4
2017-Dec-11 05:00N 48°31' W 122°42'1 1.1
2017-Dec-11 04:30N 48°31' W 122°43'815.4
2017-Dec-11 04:00N 48°35' W 122°53'3 5.1
2017-Dec-11 03:30N 48°36' W 122°56'4 8.6
2017-Dec-11 03:00N 48°33' W 122°51'714.7
2017-Dec-11 02:30N 48°31' W 122°41'1 1.5
2017-Dec-11 02:01N 48°31' W 122°41'714.9
2017-Dec-11 01:30N 48°34' W 122°51'4 8.1
2017-Dec-11 01:00N 48°36' W 122°57'1 1.8
2017-Dec-11 00:30N 48°35' W 122°56'612.2
2017-Dec-11 00:00N 48°32' W 122°48'510.3
2017-Dec-10 23:30N 48°30' W 122°41'0 0.0
2017-Dec-10 23:00N 48°30' W 122°41'612.9
2017-Dec-10 22:30N 48°32' W 122°50'612.8
2017-Dec-10 22:00N 48°32' W 122°60'1 1.8
2017-Dec-10 21:30N 48°32' W 123°01'610.9
2017-Dec-10 21:00N 48°37' W 123°05'815.2
2017-Dec-10 20:30N 48°38' W 123°16'5 9.8
2017-Dec-10 20:00N 48°39' W 123°24'0 0.0
2017-Dec-10 19:30N 48°39' W 123°24'3 5.0
2017-Dec-10 19:00N 48°39' W 123°20'815.8
2017-Dec-10 18:30N 48°38' W 123°08'815.1
2017-Dec-10 18:01N 48°33' W 123°00'0 0.7
2017-Dec-10 17:31N 48°33' W 123°01'713.2
2017-Dec-10 17:00N 48°33' W 122°51'714.4
2017-Dec-10 16:30N 48°30' W 122°41'2 4.0
2017-Dec-10 16:01N 48°31' W 122°43'714.0
2017-Dec-10 15:30N 48°34' W 122°53'2 4.1
2017-Dec-10 15:00N 48°35' W 122°56'1 1.8
2017-Dec-10 14:30N 48°36' W 122°57'5 9.6
2017-Dec-10 14:00N 48°33' W 122°51'714.0
2017-Dec-10 13:30N 48°30' W 122°41'0 0.0
2017-Dec-10 12:39N 48°30' W 122°41'0 0.2
2017-Dec-10 12:30N 48°30' W 122°41'0 0.1
2017-Dec-10 11:59N 48°30' W 122°41'0 0.0
2017-Dec-10 10:45N 48°30' W 122°41'0 0.0
2017-Dec-10 10:28N 48°30' W 122°41'0 0.0
2017-Dec-10 10:00N 48°30' W 122°41'0 0.0
2017-Dec-10 09:30N 48°30' W 122°41'0 0.0
2017-Dec-10 09:00N 48°30' W 122°41'0 0.0
2017-Dec-10 07:20N 48°30' W 122°41'0 0.0
2017-Dec-10 07:00N 48°30' W 122°41'612.0
2017-Dec-10 06:30N 48°32' W 122°49'612.2
2017-Dec-10 06:01N 48°36' W 122°57'3 6.4
2017-Dec-10 05:31N 48°35' W 122°52'815.5
2017-Dec-10 05:01N 48°31' W 122°42'1 1.1
2017-Dec-10 04:31N 48°31' W 122°42'815.3
2017-Dec-10 04:01N 48°35' W 122°53'3 5.1
2017-Dec-10 03:30N 48°36' W 122°56'5 9.4
2017-Dec-10 03:01N 48°33' W 122°51'714.0
2017-Dec-10 02:30N 48°30' W 122°41'1 1.6
2017-Dec-10 02:00N 48°31' W 122°41'815.2
2017-Dec-10 01:30N 48°34' W 122°51'4 7.8
2017-Dec-10 01:00N 48°36' W 122°57'1 1.8
2017-Dec-10 00:30N 48°35' W 122°56'612.7
2017-Dec-10 00:00N 48°32' W 122°48'5 9.8
2017-Dec-09 23:30N 48°30' W 122°41'0 0.0
2017-Dec-09 23:00N 48°30' W 122°41'612.1
2017-Dec-09 22:30N 48°32' W 122°49'613.0
2017-Dec-09 22:01N 48°32' W 122°59'1 2.4
2017-Dec-09 21:30N 48°32' W 123°01'612.0
2017-Dec-09 21:00N 48°37' W 123°06'714.6
2017-Dec-09 20:31N 48°38' W 123°16'5 9.7
2017-Dec-09 20:00N 48°39' W 123°24'0 0.0
2017-Dec-09 19:30N 48°39' W 123°24'3 5.0
2017-Dec-09 19:00N 48°39' W 123°20'816.3
2017-Dec-09 18:31N 48°38' W 123°08'714.9
2017-Dec-09 18:00N 48°33' W 122°60'1 2.0
2017-Dec-09 17:31N 48°33' W 122°58'612.7
2017-Dec-09 17:01N 48°32' W 122°49'611.0
2017-Dec-09 16:30N 48°30' W 122°41'2 4.5
2017-Dec-09 16:00N 48°32' W 122°44'713.5
2017-Dec-09 15:30N 48°34' W 122°53'2 4.1
2017-Dec-09 15:00N 48°35' W 122°56'1 1.8
2017-Dec-09 14:30N 48°36' W 122°57'713.8
2017-Dec-09 14:00N 48°32' W 122°48'510.5
2017-Dec-09 13:30N 48°30' W 122°41'0 0.0
2017-Dec-09 13:00N 48°30' W 122°41'0 0.0
2017-Dec-09 12:30N 48°30' W 122°41'0 0.0
2017-Dec-09 12:00N 48°30' W 122°41'0 0.0
2017-Dec-09 11:29N 48°30' W 122°41'0 0.0
2017-Dec-09 11:00N 48°30' W 122°41'0 0.0
2017-Dec-09 10:31N 48°30' W 122°41'0 0.0
2017-Dec-09 10:00N 48°30' W 122°41'0 0.0
2017-Dec-09 09:30N 48°30' W 122°41'0 0.0
2017-Dec-09 09:00N 48°30' W 122°41'0 0.0
2017-Dec-09 08:30N 48°30' W 122°41'0 0.0
2017-Dec-09 08:00N 48°30' W 122°41'0 0.0
2017-Dec-09 07:30N 48°30' W 122°41'0 0.0
2017-Dec-09 07:00N 48°30' W 122°41'510.8
2017-Dec-09 06:30N 48°32' W 122°48'713.5
2017-Dec-09 06:01N 48°36' W 122°57'3 6.1
2017-Dec-09 05:30N 48°35' W 122°52'815.3
2017-Dec-09 05:01N 48°31' W 122°42'0 0.9
2017-Dec-09 04:30N 48°31' W 122°42'815.4
2017-Dec-09 04:00N 48°35' W 122°53'2 4.8
2017-Dec-09 03:30N 48°36' W 122°56'5 9.6
2017-Dec-09 03:00N 48°33' W 122°50'713.6
2017-Dec-09 02:30N 48°30' W 122°41'1 1.4
2017-Dec-09 02:00N 48°31' W 122°41'815.6
2017-Dec-09 01:31N 48°34' W 122°52'4 7.7
2017-Dec-09 01:00N 48°36' W 122°57'1 1.8
2017-Dec-09 00:30N 48°35' W 122°56'612.4
2017-Dec-09 00:00N 48°32' W 122°48'510.0
2017-Dec-08 23:30N 48°30' W 122°41'0 0.9
2017-Dec-08 23:01N 48°31' W 122°40'815.3
2017-Dec-08 22:31N 48°33' W 122°51'612.8
2017-Dec-08 22:00N 48°32' W 123°01'0 0.1
2017-Dec-08 21:30N 48°32' W 123°01'612.4
2017-Dec-08 21:00N 48°37' W 123°06'714.6
2017-Dec-08 20:30N 48°38' W 123°17'5 9.1
2017-Dec-08 20:00N 48°39' W 123°24'0 0.0
2017-Dec-08 19:30N 48°39' W 123°24'3 6.4
2017-Dec-08 19:00N 48°39' W 123°19'816.6
2017-Dec-08 18:30N 48°38' W 123°07'713.0
2017-Dec-08 18:00N 48°32' W 123°01'1 2.0
2017-Dec-08 17:30N 48°33' W 122°59'613.0
2017-Dec-08 17:00N 48°32' W 122°50'612.3
2017-Dec-08 16:30N 48°30' W 122°41'2 4.1
2017-Dec-08 16:00N 48°32' W 122°43'713.7
2017-Dec-08 15:30N 48°34' W 122°53'2 4.2
2017-Dec-08 15:00N 48°35' W 122°56'1 1.8
2017-Dec-08 14:30N 48°36' W 122°57'510.9
2017-Dec-08 14:00N 48°33' W 122°50'713.1
2017-Dec-08 13:30N 48°30' W 122°41'0 0.1
2017-Dec-08 13:00N 48°30' W 122°41'0 0.1
2017-Dec-08 12:31N 48°30' W 122°41'0 0.1
2017-Dec-08 12:00N 48°30' W 122°41'0 0.0
2017-Dec-08 11:30N 48°30' W 122°41'0 0.0
2017-Dec-08 11:00N 48°30' W 122°41'0 0.0
2017-Dec-08 10:30N 48°30' W 122°41'0 0.0
2017-Dec-08 10:00N 48°30' W 122°41'0 0.0
2017-Dec-08 09:24N 48°30' W 122°41'0 0.0
2017-Dec-08 09:00N 48°30' W 122°41'0 0.0
2017-Dec-08 08:30N 48°30' W 122°41'0 0.0
2017-Dec-08 08:00N 48°30' W 122°41'0 0.0
2017-Dec-08 07:30N 48°30' W 122°41'0 0.0
2017-Dec-08 07:00N 48°30' W 122°41'510.6
2017-Dec-08 06:31N 48°32' W 122°48'713.8
2017-Dec-08 06:00N 48°36' W 122°57'3 6.5
2017-Dec-08 05:30N 48°34' W 122°52'815.3
2017-Dec-08 05:00N 48°31' W 122°42'1 1.1
2017-Dec-08 04:30N 48°31' W 122°42'815.3
2017-Dec-08 04:00N 48°35' W 122°53'3 5.0
2017-Dec-08 03:31N 48°36' W 122°56'4 8.9
2017-Dec-08 03:00N 48°33' W 122°51'714.2
2017-Dec-08 02:30N 48°30' W 122°41'1 1.9
2017-Dec-08 02:00N 48°31' W 122°41'815.4
2017-Dec-08 01:30N 48°34' W 122°52'4 7.6
2017-Dec-08 01:00N 48°36' W 122°57'1 1.8
2017-Dec-08 00:30N 48°35' W 122°56'713.1
2017-Dec-08 00:00N 48°32' W 122°47'5 9.3
2017-Dec-07 23:30N 48°30' W 122°41'0 0.0
2017-Dec-07 23:00N 48°30' W 122°41'713.4
2017-Dec-07 22:31N 48°33' W 122°50'713.1
2017-Dec-07 22:00N 48°33' W 123°00'1 1.4
2017-Dec-07 21:30N 48°32' W 123°01'613.0
2017-Dec-07 21:00N 48°38' W 123°06'815.4
2017-Dec-07 20:30N 48°38' W 123°18'4 8.0
2017-Dec-07 20:00N 48°39' W 123°24'0 0.1
2017-Dec-07 19:30N 48°39' W 123°24'4 8.4
2017-Dec-07 19:00N 48°38' W 123°17'714.0
2017-Dec-07 18:30N 48°38' W 123°07'713.4
2017-Dec-07 18:01N 48°32' W 123°01'1 1.8
2017-Dec-07 17:30N 48°33' W 122°59'612.8
2017-Dec-07 17:00N 48°32' W 122°50'612.7
2017-Dec-07 16:31N 48°30' W 122°41'2 3.8
2017-Dec-07 16:00N 48°32' W 122°43'714.3
2017-Dec-07 15:30N 48°34' W 122°53'2 4.2
2017-Dec-07 15:00N 48°35' W 122°56'1 1.8
2017-Dec-07 14:30N 48°36' W 122°57'510.8
2017-Dec-07 14:00N 48°33' W 122°50'713.2
2017-Dec-07 13:31N 48°30' W 122°41'0 0.1
2017-Dec-07 13:01N 48°30' W 122°41'0 0.0
2017-Dec-07 12:30N 48°30' W 122°41'0 0.0
2017-Dec-07 12:00N 48°30' W 122°41'0 0.0
2017-Dec-07 11:31N 48°30' W 122°41'0 0.1
2017-Dec-07 11:01N 48°30' W 122°41'0 0.1
2017-Dec-07 10:31N 48°30' W 122°41'0 0.0
2017-Dec-07 10:01N 48°30' W 122°41'0 0.0
2017-Dec-07 09:30N 48°30' W 122°41'0 0.0
2017-Dec-07 09:01N 48°30' W 122°41'0 0.0
2017-Dec-07 08:31N 48°30' W 122°41'0 0.0
2017-Dec-07 08:01N 48°30' W 122°41'0 0.0
2017-Dec-07 07:31N 48°30' W 122°41'0 0.0
2017-Dec-07 07:01N 48°30' W 122°41'510.2
2017-Dec-07 06:30N 48°32' W 122°48'713.9
2017-Dec-07 06:00N 48°36' W 122°57'3 6.4
2017-Dec-07 05:31N 48°34' W 122°52'714.7
2017-Dec-07 05:01N 48°31' W 122°42'0 0.6
2017-Dec-07 04:30N 48°31' W 122°42'815.5
2017-Dec-07 04:00N 48°35' W 122°53'2 4.9
2017-Dec-07 03:30N 48°36' W 122°56'4 8.4
2017-Dec-07 03:01N 48°34' W 122°51'714.9
2017-Dec-07 02:30N 48°31' W 122°41'1 1.5
2017-Dec-07 02:00N 48°31' W 122°41'815.1
2017-Dec-07 01:30N 48°34' W 122°52'4 7.7
2017-Dec-07 01:00N 48°36' W 122°57'1 1.8
2017-Dec-07 00:30N 48°35' W 122°56'714.6
2017-Dec-07 00:00N 48°31' W 122°46'4 7.5
2017-Dec-06 23:30N 48°30' W 122°41'0 0.0
2017-Dec-06 23:00N 48°30' W 122°41'713.6
2017-Dec-06 22:30N 48°33' W 122°50'613.0
2017-Dec-06 22:01N 48°33' W 123°00'1 1.3
2017-Dec-06 21:30N 48°32' W 123°01'713.2
2017-Dec-06 21:01N 48°38' W 123°06'  
Track history (hours):
 
Tides and Currents Weather Stations Pressure Air Temp Water Temp Dewpoint Dewpoint Depression Visibility Wind Speed Wind Dir Waves Ship Positions

Elwha

Owner: WASHINGTON, STATE OF; Dept. of Transportation, OLYMPIA, WA. More information available from US FCC via Universal Licensing System and Coast Guard Vessel Documentation Center.

Last reported at 2017-Dec-16 12:30 UTC. Time now 2017-Dec-16 12:51 UTC.
Position N 48°30' W 122°41'.

Length 116 m; draft 5.7 m.

Type: Passenger vessel. MMSI: 366773060.

Date/timePositionNaut miles runAvg speedWind from/ knotsBaromVisibWave heightAir tempDewpointWater temp
2017-Dec-16 12:30N 48°30' W 122°41'0 0.0
2017-Dec-16 12:00N 48°30' W 122°41'0 0.0
2017-Dec-16 11:29N 48°30' W 122°41'0 0.0
2017-Dec-16 10:01N 48°30' W 122°41'0 0.0
2017-Dec-16 09:58N 48°30' W 122°41'0 0.0
2017-Dec-16 09:23N 48°30' W 122°41'0 0.0
2017-Dec-16 08:59N 48°30' W 122°41'0 0.1
2017-Dec-16 08:30N 48°30' W 122°41'0 0.1
2017-Dec-16 08:00N 48°30' W 122°41'0 0.0
2017-Dec-16 07:07N 48°30' W 122°41'0 0.1
2017-Dec-16 06:59N 48°30' W 122°41'612.2
2017-Dec-16 06:30N 48°32' W 122°49'612.9
2017-Dec-16 06:00N 48°36' W 122°57'3 7.0
2017-Dec-16 05:31N 48°34' W 122°52'714.8
2017-Dec-16 05:00N 48°31' W 122°42'0 0.8
2017-Dec-16 04:30N 48°31' W 122°42'815.8
2017-Dec-16 04:00N 48°35' W 122°53'2 4.8
2017-Dec-16 03:30N 48°36' W 122°56'4 8.8
2017-Dec-16 03:01N 48°33' W 122°51'714.4
2017-Dec-16 02:30N 48°31' W 122°41'1 1.4
2017-Dec-16 02:01N 48°31' W 122°41'815.2
2017-Dec-16 01:30N 48°34' W 122°51'4 8.0
2017-Dec-16 01:00N 48°36' W 122°57'1 1.8
2017-Dec-16 00:30N 48°35' W 122°56'612.2
2017-Dec-16 00:01N 48°32' W 122°48'510.0
2017-Dec-15 23:30N 48°30' W 122°41'0 0.1
2017-Dec-15 23:00N 48°31' W 122°41'713.6
2017-Dec-15 22:30N 48°33' W 122°50'612.5
2017-Dec-15 22:00N 48°33' W 122°60'1 1.6
2017-Dec-15 21:30N 48°32' W 123°01'611.0
2017-Dec-15 21:01N 48°37' W 123°05'815.9
2017-Dec-15 20:31N 48°38' W 123°17'5 9.2
2017-Dec-15 20:00N 48°39' W 123°24'0 0.0
2017-Dec-15 19:31N 48°39' W 123°24'3 5.6
2017-Dec-15 19:00N 48°39' W 123°20'816.5
2017-Dec-15 18:30N 48°38' W 123°07'714.0
2017-Dec-15 18:00N 48°32' W 123°01'1 1.4
2017-Dec-15 17:30N 48°33' W 122°60'612.9
2017-Dec-15 17:00N 48°33' W 122°50'712.8
2017-Dec-15 16:30N 48°30' W 122°41'2 3.3
2017-Dec-15 16:01N 48°31' W 122°43'714.7
2017-Dec-15 15:30N 48°34' W 122°53'2 4.2
2017-Dec-15 15:00N 48°35' W 122°56'1 1.8
2017-Dec-15 14:30N 48°36' W 122°57'5 9.9
2017-Dec-15 14:00N 48°33' W 122°50'714.0
2017-Dec-15 13:30N 48°30' W 122°41'0 0.1
2017-Dec-15 12:59N 48°30' W 122°41'0 0.1
2017-Dec-15 12:30N 48°30' W 122°41'0 0.1
2017-Dec-15 11:57N 48°30' W 122°41'0 0.0
2017-Dec-15 11:30N 48°30' W 122°41'0 0.0
2017-Dec-15 11:00N 48°30' W 122°41'0 0.0
2017-Dec-15 10:31N 48°30' W 122°41'0 0.0
2017-Dec-15 09:56N 48°30' W 122°41'0 0.0
2017-Dec-15 09:29N 48°30' W 122°41'0 0.1
2017-Dec-15 09:00N 48°30' W 122°41'0 0.1
2017-Dec-15 08:29N 48°30' W 122°41'0 0.0
2017-Dec-15 07:59N 48°30' W 122°41'0 0.0
2017-Dec-15 07:26N 48°30' W 122°41'0 0.0
2017-Dec-15 07:00N 48°30' W 122°41'0 0.0
2017-Dec-15 06:30N 48°30' W 122°41'0 0.0
2017-Dec-15 06:00N 48°30' W 122°41'0 0.0
2017-Dec-15 05:30N 48°30' W 122°41'0 0.0
2017-Dec-15 05:00N 48°30' W 122°41'1 2.9
2017-Dec-15 04:30N 48°32' W 122°42'815.6
2017-Dec-15 04:00N 48°35' W 122°53'9 6.1
2017-Dec-15 02:30N 48°30' W 122°41'12 7.9
2017-Dec-15 01:00N 48°36' W 122°57'1 1.8
2017-Dec-15 00:30N 48°35' W 122°56'8 1.4
2017-Dec-14 18:30N 48°38' W 123°08'714.1
2017-Dec-14 18:01N 48°32' W 123°01'1 1.6
2017-Dec-14 17:31N 48°33' W 122°60'612.7
2017-Dec-14 17:01N 48°33' W 122°50'713.1
2017-Dec-14 16:30N 48°30' W 122°41'2 3.6
2017-Dec-14 16:00N 48°31' W 122°43'9 9.3
2017-Dec-14 15:00N 48°35' W 122°56'1 1.8
2017-Dec-14 14:30N 48°36' W 122°57'5 9.9
2017-Dec-14 14:01N 48°33' W 122°50'714.0
2017-Dec-14 13:30N 48°30' W 122°41'0 0.1
2017-Dec-14 13:00N 48°30' W 122°41'0 0.0
2017-Dec-14 12:30N 48°30' W 122°41'0 0.0
2017-Dec-14 12:00N 48°30' W 122°41'0 0.0
2017-Dec-14 11:30N 48°30' W 122°41'0 0.0
2017-Dec-14 11:00N 48°30' W 122°41'0 0.0
2017-Dec-14 10:30N 48°30' W 122°41'0 0.0
2017-Dec-14 10:00N 48°30' W 122°41'0 0.0
2017-Dec-14 09:30N 48°30' W 122°41'0 0.0
2017-Dec-14 09:00N 48°30' W 122°41'0 0.0
2017-Dec-14 08:30N 48°30' W 122°41'0 0.0
2017-Dec-14 08:00N 48°30' W 122°41'0 0.0
2017-Dec-14 07:30N 48°30' W 122°41'0 0.0
2017-Dec-14 07:00N 48°30' W 122°41'0 0.0
2017-Dec-14 06:30N 48°30' W 122°41'0 0.0
2017-Dec-14 06:00N 48°30' W 122°41'0 0.0
2017-Dec-14 05:30N 48°30' W 122°41'0 0.0
2017-Dec-14 05:00N 48°30' W 122°41'1 2.6
2017-Dec-14 04:30N 48°31' W 122°42'815.8
2017-Dec-14 04:00N 48°35' W 122°53'3 5.4
2017-Dec-14 03:31N 48°36' W 122°57'4 8.8
2017-Dec-14 03:00N 48°33' W 122°51'714.8
2017-Dec-14 02:30N 48°31' W 122°41'1 1.3
2017-Dec-14 02:01N 48°31' W 122°41'714.9
2017-Dec-14 01:30N 48°34' W 122°51'4 8.1
2017-Dec-14 01:00N 48°36' W 122°57'1 1.8
2017-Dec-14 00:30N 48°35' W 122°56'612.9
2017-Dec-14 00:01N 48°32' W 122°48'5 9.5
2017-Dec-13 23:30N 48°30' W 122°41'0 0.1
2017-Dec-13 23:00N 48°30' W 122°41'714.0
2017-Dec-13 22:31N 48°33' W 122°50'612.7
2017-Dec-13 22:01N 48°33' W 122°60'1 1.5
2017-Dec-13 21:30N 48°32' W 123°01'510.5
2017-Dec-13 21:01N 48°37' W 123°05'815.4
2017-Dec-13 20:30N 48°39' W 123°16'510.3
2017-Dec-13 20:00N 48°39' W 123°24'0 0.1
2017-Dec-13 19:30N 48°39' W 123°24'4 7.3
2017-Dec-13 19:00N 48°39' W 123°18'815.1
2017-Dec-13 18:31N 48°38' W 123°07'713.6
2017-Dec-13 18:00N 48°32' W 123°01'1 1.1
2017-Dec-13 17:31N 48°33' W 123°00'713.7
2017-Dec-13 17:00N 48°33' W 122°50'713.3
2017-Dec-13 16:30N 48°30' W 122°41'2 4.1
2017-Dec-13 16:00N 48°31' W 122°43'713.7
2017-Dec-13 15:30N 48°34' W 122°53'2 4.2
2017-Dec-13 15:00N 48°35' W 122°56'1 1.8
2017-Dec-13 14:30N 48°36' W 122°57'510.2
2017-Dec-13 14:00N 48°33' W 122°50'713.8
2017-Dec-13 13:30N 48°30' W 122°41'0 0.1
2017-Dec-13 13:00N 48°30' W 122°41'0 0.0
2017-Dec-13 12:30N 48°30' W 122°41'0 0.0
2017-Dec-13 12:00N 48°30' W 122°41'0 0.0
2017-Dec-13 11:31N 48°30' W 122°41'0 0.0
2017-Dec-13 10:59N 48°30' W 122°41'0 0.0
2017-Dec-13 10:30N 48°30' W 122°41'0 0.0
2017-Dec-13 10:00N 48°30' W 122°41'0 0.0
2017-Dec-13 09:31N 48°30' W 122°41'0 0.1
2017-Dec-13 08:59N 48°30' W 122°41'0 0.1
2017-Dec-13 08:31N 48°30' W 122°41'0 0.0
2017-Dec-13 08:01N 48°30' W 122°41'0 0.0
2017-Dec-13 07:30N 48°30' W 122°41'0 0.0
2017-Dec-13 06:59N 48°30' W 122°41'611.8
2017-Dec-13 06:31N 48°32' W 122°49'713.0
2017-Dec-13 06:00N 48°36' W 122°57'3 6.7
2017-Dec-13 05:30N 48°34' W 122°52'815.3
2017-Dec-13 05:00N 48°31' W 122°42'1 1.4
2017-Dec-13 04:31N 48°32' W 122°42'815.7
2017-Dec-13 04:01N 48°35' W 122°53'2 4.5
2017-Dec-13 03:30N 48°36' W 122°56'5 9.2
2017-Dec-13 03:00N 48°33' W 122°51'714.0
2017-Dec-13 02:30N 48°30' W 122°41'1 1.1
2017-Dec-13 02:00N 48°31' W 122°40'815.5
2017-Dec-13 01:30N 48°34' W 122°51'4 8.0
2017-Dec-13 01:00N 48°36' W 122°57'1 1.8
2017-Dec-13 00:30N 48°35' W 122°56'612.6
2017-Dec-13 00:00N 48°32' W 122°48'5 9.8
2017-Dec-12 23:30N 48°30' W 122°41'0 0.0
2017-Dec-12 23:00N 48°30' W 122°41'713.2
2017-Dec-12 22:31N 48°32' W 122°50'612.5
2017-Dec-12 22:00N 48°33' W 122°59'1 2.0
2017-Dec-12 21:30N 48°32' W 123°01'510.4
2017-Dec-12 21:00N 48°37' W 123°05'816.1
2017-Dec-12 20:30N 48°38' W 123°17'5 9.4
2017-Dec-12 20:00N 48°39' W 123°24'0 0.0
2017-Dec-12 19:30N 48°39' W 123°24'3 5.8
2017-Dec-12 19:00N 48°39' W 123°20'816.0
2017-Dec-12 18:31N 48°38' W 123°08'714.2
2017-Dec-12 18:01N 48°32' W 123°01'1 1.5
2017-Dec-12 17:31N 48°33' W 122°60'612.9
2017-Dec-12 17:00N 48°32' W 122°50'612.8
2017-Dec-12 16:30N 48°30' W 122°41'2 4.3
2017-Dec-12 16:00N 48°31' W 122°43'713.8
2017-Dec-12 15:30N 48°34' W 122°53'2 4.1
2017-Dec-12 15:00N 48°35' W 122°56'1 1.8
2017-Dec-12 14:30N 48°36' W 122°57'5 9.3
2017-Dec-12 14:01N 48°33' W 122°51'714.6
2017-Dec-12 13:30N 48°30' W 122°41'0 0.1
2017-Dec-12 13:00N 48°30' W 122°41'0 0.1
2017-Dec-12 12:30N 48°30' W 122°41'0 0.0
2017-Dec-12 07:13N 48°30' W 122°41'0 0.0
2017-Dec-12 07:00N 48°30' W 122°41'611.1
2017-Dec-12 06:31N 48°32' W 122°49'713.1
2017-Dec-12 06:00N 48°36' W 122°57'4 7.3
2017-Dec-12 05:30N 48°34' W 122°52'815.6
2017-Dec-12 05:00N 48°31' W 122°41'1 2.1
2017-Dec-12 04:30N 48°31' W 122°42'815.3
2017-Dec-12 04:00N 48°35' W 122°53'3 5.2
2017-Dec-12 03:30N 48°36' W 122°57'4 8.7
2017-Dec-12 03:00N 48°33' W 122°51'714.9
2017-Dec-12 02:30N 48°31' W 122°41'1 1.5
2017-Dec-12 02:00N 48°31' W 122°41'715.1
2017-Dec-12 01:30N 48°34' W 122°51'4 7.8
2017-Dec-12 01:00N 48°36' W 122°57'1 1.8
2017-Dec-12 00:30N 48°35' W 122°56'612.7
2017-Dec-12 00:00N 48°32' W 122°48'5 9.8
2017-Dec-11 23:30N 48°30' W 122°41'0 0.0
2017-Dec-11 23:00N 48°30' W 122°41'613.0
2017-Dec-11 22:30N 48°32' W 122°50'612.6
2017-Dec-11 22:00N 48°33' W 122°59'1 2.0
2017-Dec-11 21:30N 48°32' W 123°01'510.5
2017-Dec-11 21:00N 48°37' W 123°05'815.5
2017-Dec-11 20:30N 48°38' W 123°16'5 9.0
2017-Dec-11 19:57N 48°39' W 123°24'0 0.0
2017-Dec-11 19:30N 48°39' W 123°24'3 5.0
2017-Dec-11 19:00N 48°39' W 123°20'816.2
2017-Dec-11 18:30N 48°38' W 123°08'815.0
2017-Dec-11 18:00N 48°33' W 123°00'1 3.0
2017-Dec-11 17:31N 48°32' W 122°58'612.6
2017-Dec-11 17:01N 48°32' W 122°48'510.5
2017-Dec-11 16:30N 48°30' W 122°41'2 4.6
2017-Dec-11 16:01N 48°31' W 122°44'713.4
2017-Dec-11 15:30N 48°34' W 122°53'2 4.1
2017-Dec-11 15:00N 48°35' W 122°56'1 1.8
2017-Dec-11 14:30N 48°36' W 122°57'510.0
2017-Dec-11 14:00N 48°33' W 122°50'713.9
2017-Dec-11 13:30N 48°30' W 122°41'0 0.1
2017-Dec-11 13:00N 48°30' W 122°41'0 0.0
2017-Dec-11 12:30N 48°30' W 122°41'0 0.0
2017-Dec-11 12:00N 48°30' W 122°41'0 0.0
2017-Dec-11 11:30N 48°30' W 122°41'0 0.0
2017-Dec-11 11:00N 48°30' W 122°41'0 0.0
2017-Dec-11 10:30N 48°30' W 122°41'0 0.0
2017-Dec-11 10:00N 48°30' W 122°41'0 0.0
2017-Dec-11 09:30N 48°30' W 122°41'0 0.0
2017-Dec-11 09:00N 48°30' W 122°41'0 0.0
2017-Dec-11 08:30N 48°30' W 122°41'0 0.0
2017-Dec-11 08:00N 48°30' W 122°41'0 0.0
2017-Dec-11 07:30N 48°30' W 122°41'0 0.0
2017-Dec-11 07:00N 48°30' W 122°41'611.0
2017-Dec-11 06:30N 48°32' W 122°49'713.3
2017-Dec-11 06:01N 48°36' W 122°57'3 6.3
2017-Dec-11 05:30N 48°35' W 122°52'815.4
2017-Dec-11 05:00N 48°31' W 122°42'1 1.1
2017-Dec-11 04:30N 48°31' W 122°43'815.4
2017-Dec-11 04:00N 48°35' W 122°53'3 5.1
2017-Dec-11 03:30N 48°36' W 122°56'4 8.6
2017-Dec-11 03:00N 48°33' W 122°51'714.7
2017-Dec-11 02:30N 48°31' W 122°41'1 1.5
2017-Dec-11 02:01N 48°31' W 122°41'714.9
2017-Dec-11 01:30N 48°34' W 122°51'4 8.1
2017-Dec-11 01:00N 48°36' W 122°57'1 1.8
2017-Dec-11 00:30N 48°35' W 122°56'612.2
2017-Dec-11 00:00N 48°32' W 122°48'510.3
2017-Dec-10 23:30N 48°30' W 122°41'0 0.0
2017-Dec-10 23:00N 48°30' W 122°41'612.9
2017-Dec-10 22:30N 48°32' W 122°50'612.8
2017-Dec-10 22:00N 48°32' W 122°60'1 1.8
2017-Dec-10 21:30N 48°32' W 123°01'610.9
2017-Dec-10 21:00N 48°37' W 123°05'815.2
2017-Dec-10 20:30N 48°38' W 123°16'5 9.8
2017-Dec-10 20:00N 48°39' W 123°24'0 0.0
2017-Dec-10 19:30N 48°39' W 123°24'3 5.0
2017-Dec-10 19:00N 48°39' W 123°20'815.8
2017-Dec-10 18:30N 48°38' W 123°08'815.1
2017-Dec-10 18:01N 48°33' W 123°00'0 0.7
2017-Dec-10 17:31N 48°33' W 123°01'713.2
2017-Dec-10 17:00N 48°33' W 122°51'714.4
2017-Dec-10 16:30N 48°30' W 122°41'2 4.0
2017-Dec-10 16:01N 48°31' W 122°43'714.0
2017-Dec-10 15:30N 48°34' W 122°53'2 4.1
2017-Dec-10 15:00N 48°35' W 122°56'1 1.8
2017-Dec-10 14:30N 48°36' W 122°57'5 9.6
2017-Dec-10 14:00N 48°33' W 122°51'714.0
2017-Dec-10 13:30N 48°30' W 122°41'0 0.0
2017-Dec-10 12:39N 48°30' W 122°41'0 0.2
2017-Dec-10 12:30N 48°30' W 122°41'0 0.1
2017-Dec-10 11:59N 48°30' W 122°41'0 0.0
2017-Dec-10 10:45N 48°30' W 122°41'0 0.0
2017-Dec-10 10:28N 48°30' W 122°41'0 0.0
2017-Dec-10 10:00N 48°30' W 122°41'0 0.0
2017-Dec-10 09:30N 48°30' W 122°41'0 0.0
2017-Dec-10 09:00N 48°30' W 122°41'0 0.0
2017-Dec-10 07:20N 48°30' W 122°41'0 0.0
2017-Dec-10 07:00N 48°30' W 122°41'612.0
2017-Dec-10 06:30N 48°32' W 122°49'612.2
2017-Dec-10 06:01N 48°36' W 122°57'3 6.4
2017-Dec-10 05:31N 48°35' W 122°52'815.5
2017-Dec-10 05:01N 48°31' W 122°42'1 1.1
2017-Dec-10 04:31N 48°31' W 122°42'815.3
2017-Dec-10 04:01N 48°35' W 122°53'3 5.1
2017-Dec-10 03:30N 48°36' W 122°56'5 9.4
2017-Dec-10 03:01N 48°33' W 122°51'714.0
2017-Dec-10 02:30N 48°30' W 122°41'1 1.6
2017-Dec-10 02:00N 48°31' W 122°41'815.2
2017-Dec-10 01:30N 48°34' W 122°51'4 7.8
2017-Dec-10 01:00N 48°36' W 122°57'1 1.8
2017-Dec-10 00:30N 48°35' W 122°56'612.7
2017-Dec-10 00:00N 48°32' W 122°48'5 9.8
2017-Dec-09 23:30N 48°30' W 122°41'0 0.0
2017-Dec-09 23:00N 48°30' W 122°41'612.1
2017-Dec-09 22:30N 48°32' W 122°49'613.0
2017-Dec-09 22:01N 48°32' W 122°59'1 2.4
2017-Dec-09 21:30N 48°32' W 123°01'612.0
2017-Dec-09 21:00N 48°37' W 123°06'714.6
2017-Dec-09 20:31N 48°38' W 123°16'5 9.7
2017-Dec-09 20:00N 48°39' W 123°24'0 0.0
2017-Dec-09 19:30N 48°39' W 123°24'3 5.0
2017-Dec-09 19:00N 48°39' W 123°20'816.3
2017-Dec-09 18:31N 48°38' W 123°08'714.9
2017-Dec-09 18:00N 48°33' W 122°60'1 2.0
2017-Dec-09 17:31N 48°33' W 122°58'612.7
2017-Dec-09 17:01N 48°32' W 122°49'611.0
2017-Dec-09 16:30N 48°30' W 122°41'2 4.5
2017-Dec-09 16:00N 48°32' W 122°44'713.5
2017-Dec-09 15:30N 48°34' W 122°53'2 4.1
2017-Dec-09 15:00N 48°35' W 122°56'1 1.8
2017-Dec-09 14:30N 48°36' W 122°57'713.8
2017-Dec-09 14:00N 48°32' W 122°48'510.5
2017-Dec-09 13:30N 48°30' W 122°41'0 0.0
2017-Dec-09 13:00N 48°30' W 122°41'0 0.0
2017-Dec-09 12:30N 48°30' W 122°41'0 0.0
2017-Dec-09 12:00N 48°30' W 122°41'0 0.0
2017-Dec-09 11:29N 48°30' W 122°41'0 0.0
2017-Dec-09 11:00N 48°30' W 122°41'0 0.0
2017-Dec-09 10:31N 48°30' W 122°41'0 0.0
2017-Dec-09 10:00N 48°30' W 122°41'0 0.0
2017-Dec-09 09:30N 48°30' W 122°41'0 0.0
2017-Dec-09 09:00N 48°30' W 122°41'0 0.0
2017-Dec-09 08:30N 48°30' W 122°41'0 0.0
2017-Dec-09 08:00N 48°30' W 122°41'0 0.0
2017-Dec-09 07:30N 48°30' W 122°41'0 0.0
2017-Dec-09 07:00N 48°30' W 122°41'510.8
2017-Dec-09 06:30N 48°32' W 122°48'713.5
2017-Dec-09 06:01N 48°36' W 122°57'3 6.1
2017-Dec-09 05:30N 48°35' W 122°52'815.3
2017-Dec-09 05:01N 48°31' W 122°42'0 0.9
2017-Dec-09 04:30N 48°31' W 122°42'815.4
2017-Dec-09 04:00N 48°35' W 122°53'2 4.8
2017-Dec-09 03:30N 48°36' W 122°56'5 9.6
2017-Dec-09 03:00N 48°33' W 122°50'713.6
2017-Dec-09 02:30N 48°30' W 122°41'1 1.4
2017-Dec-09 02:00N 48°31' W 122°41'815.6
2017-Dec-09 01:31N 48°34' W 122°52'4 7.7
2017-Dec-09 01:00N 48°36' W 122°57'1 1.8
2017-Dec-09 00:30N 48°35' W 122°56'612.4
2017-Dec-09 00:00N 48°32' W 122°48'510.0
2017-Dec-08 23:30N 48°30' W 122°41'0 0.9
2017-Dec-08 23:01N 48°31' W 122°40'815.3
2017-Dec-08 22:31N 48°33' W 122°51'612.8
2017-Dec-08 22:00N 48°32' W 123°01'0 0.1
2017-Dec-08 21:30N 48°32' W 123°01'612.4
2017-Dec-08 21:00N 48°37' W 123°06'714.6
2017-Dec-08 20:30N 48°38' W 123°17'5 9.1
2017-Dec-08 20:00N 48°39' W 123°24'0 0.0
2017-Dec-08 19:30N 48°39' W 123°24'3 6.4
2017-Dec-08 19:00N 48°39' W 123°19'816.6
2017-Dec-08 18:30N 48°38' W 123°07'713.0
2017-Dec-08 18:00N 48°32' W 123°01'1 2.0
2017-Dec-08 17:30N 48°33' W 122°59'613.0
2017-Dec-08 17:00N 48°32' W 122°50'612.3
2017-Dec-08 16:30N 48°30' W 122°41'2 4.1
2017-Dec-08 16:00N 48°32' W 122°43'713.7
2017-Dec-08 15:30N 48°34' W 122°53'2 4.2
2017-Dec-08 15:00N 48°35' W 122°56'1 1.8
2017-Dec-08 14:30N 48°36' W 122°57'510.9
2017-Dec-08 14:00N 48°33' W 122°50'713.1
2017-Dec-08 13:30N 48°30' W 122°41'0 0.1
2017-Dec-08 13:00N 48°30' W 122°41'0 0.1
2017-Dec-08 12:31N 48°30' W 122°41'0 0.1
2017-Dec-08 12:00N 48°30' W 122°41'0 0.0
2017-Dec-08 11:30N 48°30' W 122°41'0 0.0
2017-Dec-08 11:00N 48°30' W 122°41'0 0.0
2017-Dec-08 10:30N 48°30' W 122°41'0 0.0
2017-Dec-08 10:00N 48°30' W 122°41'0 0.0
2017-Dec-08 09:24N 48°30' W 122°41'0 0.0
2017-Dec-08 09:00N 48°30' W 122°41'0 0.0
2017-Dec-08 08:30N 48°30' W 122°41'0 0.0
2017-Dec-08 08:00N 48°30' W 122°41'0 0.0
2017-Dec-08 07:30N 48°30' W 122°41'0 0.0
2017-Dec-08 07:00N 48°30' W 122°41'510.6
2017-Dec-08 06:31N 48°32' W 122°48'713.8
2017-Dec-08 06:00N 48°36' W 122°57'3 6.5
2017-Dec-08 05:30N 48°34' W 122°52'815.3
2017-Dec-08 05:00N 48°31' W 122°42'1 1.1
2017-Dec-08 04:30N 48°31' W 122°42'815.3
2017-Dec-08 04:00N 48°35' W 122°53'3 5.0
2017-Dec-08 03:31N 48°36' W 122°56'4 8.9
2017-Dec-08 03:00N 48°33' W 122°51'714.2
2017-Dec-08 02:30N 48°30' W 122°41'1 1.9
2017-Dec-08 02:00N 48°31' W 122°41'815.4
2017-Dec-08 01:30N 48°34' W 122°52'4 7.6
2017-Dec-08 01:00N 48°36' W 122°57'1 1.8
2017-Dec-08 00:30N 48°35' W 122°56'713.1
2017-Dec-08 00:00N 48°32' W 122°47'5 9.3
2017-Dec-07 23:30N 48°30' W 122°41'0 0.0
2017-Dec-07 23:00N 48°30' W 122°41'713.4
2017-Dec-07 22:31N 48°33' W 122°50'713.1
2017-Dec-07 22:00N 48°33' W 123°00'1 1.4
2017-Dec-07 21:30N 48°32' W 123°01'613.0
2017-Dec-07 21:00N 48°38' W 123°06'815.4
2017-Dec-07 20:30N 48°38' W 123°18'4 8.0
2017-Dec-07 20:00N 48°39' W 123°24'0 0.1
2017-Dec-07 19:30N 48°39' W 123°24'4 8.4
2017-Dec-07 19:00N 48°38' W 123°17'714.0
2017-Dec-07 18:30N 48°38' W 123°07'713.4
2017-Dec-07 18:01N 48°32' W 123°01'1 1.8
2017-Dec-07 17:30N 48°33' W 122°59'612.8
2017-Dec-07 17:00N 48°32' W 122°50'612.7
2017-Dec-07 16:31N 48°30' W 122°41'2 3.8
2017-Dec-07 16:00N 48°32' W 122°43'714.3
2017-Dec-07 15:30N 48°34' W 122°53'2 4.2
2017-Dec-07 15:00N 48°35' W 122°56'1 1.8
2017-Dec-07 14:30N 48°36' W 122°57'510.8
2017-Dec-07 14:00N 48°33' W 122°50'713.2
2017-Dec-07 13:31N 48°30' W 122°41'0 0.1
2017-Dec-07 13:01N 48°30' W 122°41'0 0.0
2017-Dec-07 12:30N 48°30' W 122°41'0 0.0
2017-Dec-07 12:00N 48°30' W 122°41'0 0.0
2017-Dec-07 11:31N 48°30' W 122°41'0 0.1
2017-Dec-07 11:01N 48°30' W 122°41'0 0.1
2017-Dec-07 10:31N 48°30' W 122°41'0 0.0
2017-Dec-07 10:01N 48°30' W 122°41'0 0.0
2017-Dec-07 09:30N 48°30' W 122°41'0 0.0
2017-Dec-07 09:01N 48°30' W 122°41'0 0.0
2017-Dec-07 08:31N 48°30' W 122°41'0 0.0
2017-Dec-07 08:01N 48°30' W 122°41'0 0.0
2017-Dec-07 07:31N 48°30' W 122°41'0 0.0
2017-Dec-07 07:01N 48°30' W 122°41'510.2
2017-Dec-07 06:30N 48°32' W 122°48'713.9
2017-Dec-07 06:00N 48°36' W 122°57'3 6.4
2017-Dec-07 05:31N 48°34' W 122°52'714.7
2017-Dec-07 05:01N 48°31' W 122°42'0 0.6
2017-Dec-07 04:30N 48°31' W 122°42'815.5
2017-Dec-07 04:00N 48°35' W 122°53'2 4.9
2017-Dec-07 03:30N 48°36' W 122°56'4 8.4
2017-Dec-07 03:01N 48°34' W 122°51'714.9
2017-Dec-07 02:30N 48°31' W 122°41'1 1.5
2017-Dec-07 02:00N 48°31' W 122°41'815.1
2017-Dec-07 01:30N 48°34' W 122°52'4 7.7
2017-Dec-07 01:00N 48°36' W 122°57'1 1.8
2017-Dec-07 00:30N 48°35' W 122°56'714.6
2017-Dec-07 00:00N 48°31' W 122°46'4 7.5
2017-Dec-06 23:30N 48°30' W 122°41'0 0.0
2017-Dec-06 23:00N 48°30' W 122°41'713.6
2017-Dec-06 22:30N 48°33' W 122°50'613.0
2017-Dec-06 22:01N 48°33' W 123°00'1 1.3
2017-Dec-06 21:30N 48°32' W 123°01'713.2
2017-Dec-06 21:01N 48°38' W 123°06'  

Dump ship's entire track history